sensor_id;sensor_type;location;lat;lon;timestamp;P1;durP1;ratioP1;P2;durP2;ratioP2
32746;SDS011;19118;50.860;13.662;2022-11-20T00:04:54;13.68;;;6.13;;
32746;SDS011;19118;50.860;13.662;2022-11-20T00:09:54;13.77;;;5.47;;
32746;SDS011;19118;50.860;13.662;2022-11-20T00:14:55;12.75;;;5.35;;
32746;SDS011;19118;50.860;13.662;2022-11-20T00:19:55;13.00;;;6.63;;
32746;SDS011;19118;50.860;13.662;2022-11-20T00:24:55;12.18;;;5.25;;
32746;SDS011;19118;50.860;13.662;2022-11-20T00:29:57;13.45;;;5.97;;
32746;SDS011;19118;50.860;13.662;2022-11-20T00:34:58;14.43;;;6.05;;
32746;SDS011;19118;50.860;13.662;2022-11-20T00:39:58;15.88;;;6.32;;
32746;SDS011;19118;50.860;13.662;2022-11-20T00:44:58;14.40;;;6.10;;
32746;SDS011;19118;50.860;13.662;2022-11-20T00:49:59;13.52;;;6.28;;
32746;SDS011;19118;50.860;13.662;2022-11-20T00:54:59;16.98;;;7.53;;
32746;SDS011;19118;50.860;13.662;2022-11-20T01:00:00;13.88;;;7.05;;
32746;SDS011;19118;50.860;13.662;2022-11-20T01:05:00;16.02;;;7.05;;
32746;SDS011;19118;50.860;13.662;2022-11-20T01:10:01;14.80;;;7.50;;
32746;SDS011;19118;50.860;13.662;2022-11-20T01:15:01;20.83;;;8.57;;
32746;SDS011;19118;50.860;13.662;2022-11-20T01:20:02;18.10;;;7.10;;
32746;SDS011;19118;50.860;13.662;2022-11-20T01:25:02;18.92;;;8.73;;
32746;SDS011;19118;50.860;13.662;2022-11-20T01:30:03;16.05;;;7.47;;
32746;SDS011;19118;50.860;13.662;2022-11-20T01:35:04;22.05;;;8.40;;
32746;SDS011;19118;50.860;13.662;2022-11-20T01:40:05;18.33;;;8.20;;
32746;SDS011;19118;50.860;13.662;2022-11-20T01:50:43;20.23;;;9.80;;
32746;SDS011;19118;50.860;13.662;2022-11-20T01:55:48;22.30;;;8.13;;
32746;SDS011;19118;50.860;13.662;2022-11-20T02:00:51;20.05;;;8.43;;
32746;SDS011;19118;50.860;13.662;2022-11-20T02:11:07;18.38;;;7.10;;
32746;SDS011;19118;50.860;13.662;2022-11-20T02:26:30;16.80;;;8.10;;
32746;SDS011;19118;50.860;13.662;2022-11-20T02:31:35;21.20;;;7.50;;
32746;SDS011;19118;50.860;13.662;2022-11-20T02:36:39;23.02;;;8.18;;
32746;SDS011;19118;50.860;13.662;2022-11-20T02:41:42;16.63;;;7.85;;
32746;SDS011;19118;50.860;13.662;2022-11-20T02:46:42;26.67;;;7.90;;
32746;SDS011;19118;50.860;13.662;2022-11-20T02:51:43;18.17;;;8.13;;
32746;SDS011;19118;50.860;13.662;2022-11-20T02:56:43;16.48;;;7.00;;
32746;SDS011;19118;50.860;13.662;2022-11-20T03:01:44;14.38;;;6.60;;
32746;SDS011;19118;50.860;13.662;2022-11-20T03:06:44;18.35;;;7.55;;
32746;SDS011;19118;50.860;13.662;2022-11-20T03:11:45;14.07;;;6.85;;
32746;SDS011;19118;50.860;13.662;2022-11-20T03:16:45;12.65;;;6.65;;
32746;SDS011;19118;50.860;13.662;2022-11-20T03:21:45;13.18;;;5.95;;
32746;SDS011;19118;50.860;13.662;2022-11-20T03:26:46;13.23;;;5.22;;
32746;SDS011;19118;50.860;13.662;2022-11-20T03:31:46;12.95;;;6.07;;
32746;SDS011;19118;50.860;13.662;2022-11-20T03:36:47;11.75;;;4.93;;
32746;SDS011;19118;50.860;13.662;2022-11-20T03:41:48;14.65;;;5.97;;
32746;SDS011;19118;50.860;13.662;2022-11-20T03:46:48;12.30;;;5.50;;
32746;SDS011;19118;50.860;13.662;2022-11-20T03:51:49;11.25;;;5.60;;
32746;SDS011;19118;50.860;13.662;2022-11-20T03:56:49;10.70;;;5.00;;
32746;SDS011;19118;50.860;13.662;2022-11-20T04:01:50;12.85;;;5.18;;
32746;SDS011;19118;50.860;13.662;2022-11-20T04:06:50;9.52;;;3.95;;
32746;SDS011;19118;50.860;13.662;2022-11-20T04:11:50;10.80;;;3.72;;
32746;SDS011;19118;50.860;13.662;2022-11-20T04:16:51;8.60;;;4.45;;
32746;SDS011;19118;50.860;13.662;2022-11-20T04:21:51;7.63;;;3.90;;
32746;SDS011;19118;50.860;13.662;2022-11-20T04:26:51;9.23;;;4.75;;
32746;SDS011;19118;50.860;13.662;2022-11-20T04:31:52;7.80;;;3.78;;
32746;SDS011;19118;50.860;13.662;2022-11-20T04:36:52;6.93;;;3.33;;
32746;SDS011;19118;50.860;13.662;2022-11-20T04:41:53;8.75;;;3.90;;
32746;SDS011;19118;50.860;13.662;2022-11-20T04:47:13;6.90;;;3.38;;
32746;SDS011;19118;50.860;13.662;2022-11-20T04:52:14;8.38;;;3.55;;
32746;SDS011;19118;50.860;13.662;2022-11-20T04:57:14;12.68;;;4.30;;
32746;SDS011;19118;50.860;13.662;2022-11-20T05:02:15;5.97;;;3.10;;
32746;SDS011;19118;50.860;13.662;2022-11-20T05:07:15;8.25;;;3.45;;
32746;SDS011;19118;50.860;13.662;2022-11-20T05:12:16;9.55;;;4.45;;
32746;SDS011;19118;50.860;13.662;2022-11-20T05:17:16;10.15;;;3.97;;
32746;SDS011;19118;50.860;13.662;2022-11-20T05:22:16;8.00;;;3.67;;
32746;SDS011;19118;50.860;13.662;2022-11-20T05:27:17;9.05;;;4.10;;
32746;SDS011;19118;50.860;13.662;2022-11-20T05:32:18;10.60;;;4.30;;
32746;SDS011;19118;50.860;13.662;2022-11-20T05:37:19;10.73;;;4.28;;
32746;SDS011;19118;50.860;13.662;2022-11-20T05:42:19;9.82;;;4.63;;
32746;SDS011;19118;50.860;13.662;2022-11-20T05:47:32;11.90;;;5.50;;
32746;SDS011;19118;50.860;13.662;2022-11-20T05:52:34;10.20;;;5.30;;
32746;SDS011;19118;50.860;13.662;2022-11-20T05:57:35;8.70;;;4.72;;
32746;SDS011;19118;50.860;13.662;2022-11-20T06:02:35;14.35;;;5.88;;
32746;SDS011;19118;50.860;13.662;2022-11-20T06:07:36;10.32;;;5.03;;
32746;SDS011;19118;50.860;13.662;2022-11-20T06:12:36;14.80;;;6.25;;
32746;SDS011;19118;50.860;13.662;2022-11-20T06:17:36;13.57;;;6.05;;
32746;SDS011;19118;50.860;13.662;2022-11-20T06:22:37;12.07;;;5.63;;
32746;SDS011;19118;50.860;13.662;2022-11-20T06:27:37;19.20;;;8.23;;
32746;SDS011;19118;50.860;13.662;2022-11-20T06:32:38;86.90;;;24.48;;
32746;SDS011;19118;50.860;13.662;2022-11-20T06:37:38;46.88;;;14.20;;
32746;SDS011;19118;50.860;13.662;2022-11-20T06:42:38;34.45;;;14.05;;
32746;SDS011;19118;50.860;13.662;2022-11-20T06:47:39;31.42;;;13.13;;
32746;SDS011;19118;50.860;13.662;2022-11-20T06:52:39;28.95;;;13.05;;
32746;SDS011;19118;50.860;13.662;2022-11-20T06:57:40;17.85;;;8.38;;
32746;SDS011;19118;50.860;13.662;2022-11-20T07:02:40;25.38;;;10.18;;
32746;SDS011;19118;50.860;13.662;2022-11-20T07:07:40;20.58;;;8.95;;
32746;SDS011;19118;50.860;13.662;2022-11-20T07:12:41;21.67;;;10.02;;
32746;SDS011;19118;50.860;13.662;2022-11-20T07:17:41;29.10;;;14.38;;
32746;SDS011;19118;50.860;13.662;2022-11-20T07:22:42;26.13;;;13.32;;
32746;SDS011;19118;50.860;13.662;2022-11-20T07:27:42;25.48;;;11.73;;
32746;SDS011;19118;50.860;13.662;2022-11-20T07:32:45;21.42;;;9.82;;
32746;SDS011;19118;50.860;13.662;2022-11-20T07:37:46;23.60;;;11.80;;
32746;SDS011;19118;50.860;13.662;2022-11-20T07:42:49;20.45;;;9.70;;
32746;SDS011;19118;50.860;13.662;2022-11-20T07:47:51;21.27;;;9.00;;
32746;SDS011;19118;50.860;13.662;2022-11-20T07:52:52;19.95;;;9.18;;
32746;SDS011;19118;50.860;13.662;2022-11-20T07:57:56;23.25;;;10.40;;
32746;SDS011;19118;50.860;13.662;2022-11-20T08:02:57;19.55;;;8.82;;
32746;SDS011;19118;50.860;13.662;2022-11-20T08:07:57;22.58;;;10.07;;
32746;SDS011;19118;50.860;13.662;2022-11-20T08:12:57;18.08;;;8.60;;
32746;SDS011;19118;50.860;13.662;2022-11-20T08:18:17;25.33;;;10.75;;
32746;SDS011;19118;50.860;13.662;2022-11-20T08:23:17;17.92;;;8.35;;
32746;SDS011;19118;50.860;13.662;2022-11-20T08:28:18;19.67;;;8.73;;
32746;SDS011;19118;50.860;13.662;2022-11-20T08:33:19;14.98;;;6.53;;
32746;SDS011;19118;50.860;13.662;2022-11-20T08:38:19;14.60;;;7.53;;
32746;SDS011;19118;50.860;13.662;2022-11-20T08:43:19;15.68;;;6.60;;
32746;SDS011;19118;50.860;13.662;2022-11-20T08:48:20;14.25;;;6.25;;
32746;SDS011;19118;50.860;13.662;2022-11-20T08:53:20;14.65;;;6.75;;
32746;SDS011;19118;50.860;13.662;2022-11-20T08:58:21;13.60;;;6.43;;
32746;SDS011;19118;50.860;13.662;2022-11-20T09:03:21;16.88;;;7.35;;
32746;SDS011;19118;50.860;13.662;2022-11-20T09:08:22;13.10;;;5.93;;
32746;SDS011;19118;50.860;13.662;2022-11-20T09:13:23;13.25;;;5.85;;
32746;SDS011;19118;50.860;13.662;2022-11-20T09:18:25;17.70;;;7.55;;
32746;SDS011;19118;50.860;13.662;2022-11-20T09:23:26;14.93;;;6.95;;
32746;SDS011;19118;50.860;13.662;2022-11-20T09:28:33;17.23;;;7.97;;
32746;SDS011;19118;50.860;13.662;2022-11-20T09:33:34;12.05;;;6.05;;
32746;SDS011;19118;50.860;13.662;2022-11-20T09:38:35;12.30;;;5.93;;
32746;SDS011;19118;50.860;13.662;2022-11-20T09:54:20;11.35;;;4.75;;
32746;SDS011;19118;50.860;13.662;2022-11-20T10:04:35;15.45;;;5.97;;
32746;SDS011;19118;50.860;13.662;2022-11-20T10:14:57;13.23;;;5.43;;
32746;SDS011;19118;50.860;13.662;2022-11-20T10:20:34;10.95;;;4.93;;
32746;SDS011;19118;50.860;13.662;2022-11-20T10:26:06;8.38;;;4.10;;
32746;SDS011;19118;50.860;13.662;2022-11-20T10:31:33;12.13;;;3.42;;
32746;SDS011;19118;50.860;13.662;2022-11-20T10:36:41;6.10;;;3.72;;
32746;SDS011;19118;50.860;13.662;2022-11-20T10:41:48;6.97;;;4.13;;
32746;SDS011;19118;50.860;13.662;2022-11-20T10:46:51;8.20;;;4.18;;
32746;SDS011;19118;50.860;13.662;2022-11-20T10:57:07;7.25;;;3.97;;
32746;SDS011;19118;50.860;13.662;2022-11-20T11:03:02;8.18;;;4.15;;
32746;SDS011;19118;50.860;13.662;2022-11-20T11:08:02;9.32;;;4.53;;
32746;SDS011;19118;50.860;13.662;2022-11-20T11:13:05;9.30;;;5.32;;
32746;SDS011;19118;50.860;13.662;2022-11-20T11:18:08;10.07;;;5.15;;
32746;SDS011;19118;50.860;13.662;2022-11-20T11:23:26;9.55;;;5.15;;
32746;SDS011;19118;50.860;13.662;2022-11-20T11:28:34;10.98;;;5.20;;
32746;SDS011;19118;50.860;13.662;2022-11-20T11:33:34;9.98;;;5.32;;
32746;SDS011;19118;50.860;13.662;2022-11-20T11:38:36;11.75;;;6.15;;
32746;SDS011;19118;50.860;13.662;2022-11-20T11:43:38;11.38;;;5.50;;
32746;SDS011;19118;50.860;13.662;2022-11-20T11:54:05;15.50;;;7.55;;
32746;SDS011;19118;50.860;13.662;2022-11-20T11:59:21;14.35;;;7.75;;
32746;SDS011;19118;50.860;13.662;2022-11-20T12:09:37;22.85;;;11.20;;
32746;SDS011;19118;50.860;13.662;2022-11-20T12:14:45;22.58;;;11.70;;
32746;SDS011;19118;50.860;13.662;2022-11-20T12:19:47;24.60;;;12.63;;
32746;SDS011;19118;50.860;13.662;2022-11-20T12:30:11;25.10;;;12.50;;
32746;SDS011;19118;50.860;13.662;2022-11-20T12:40:55;28.83;;;12.65;;
32746;SDS011;19118;50.860;13.662;2022-11-20T13:07:18;30.10;;;13.85;;
32746;SDS011;19118;50.860;13.662;2022-11-20T13:12:35;33.55;;;14.57;;
32746;SDS011;19118;50.860;13.662;2022-11-20T13:17:46;31.55;;;13.95;;
32746;SDS011;19118;50.860;13.662;2022-11-20T13:22:52;31.47;;;13.83;;
32746;SDS011;19118;50.860;13.662;2022-11-20T13:27:56;24.90;;;12.02;;
32746;SDS011;19118;50.860;13.662;2022-11-20T13:32:59;26.45;;;13.25;;
32746;SDS011;19118;50.860;13.662;2022-11-20T13:38:07;27.90;;;12.98;;
32746;SDS011;19118;50.860;13.662;2022-11-20T13:43:33;33.88;;;14.95;;
32746;SDS011;19118;50.860;13.662;2022-11-20T13:48:43;30.30;;;13.73;;
32746;SDS011;19118;50.860;13.662;2022-11-20T13:59:26;35.17;;;16.05;;
32746;SDS011;19118;50.860;13.662;2022-11-20T14:04:49;29.42;;;14.75;;
32746;SDS011;19118;50.860;13.662;2022-11-20T14:09:53;32.38;;;15.55;;
32746;SDS011;19118;50.860;13.662;2022-11-20T14:14:55;26.02;;;11.75;;
32746;SDS011;19118;50.860;13.662;2022-11-20T14:20:06;24.70;;;11.85;;
32746;SDS011;19118;50.860;13.662;2022-11-20T14:25:18;25.25;;;11.68;;
32746;SDS011;19118;50.860;13.662;2022-11-20T14:30:24;26.10;;;13.00;;
32746;SDS011;19118;50.860;13.662;2022-11-20T14:35:28;24.83;;;11.55;;
32746;SDS011;19118;50.860;13.662;2022-11-20T14:40:31;29.40;;;12.98;;
32746;SDS011;19118;50.860;13.662;2022-11-20T14:45:35;24.52;;;12.82;;
32746;SDS011;19118;50.860;13.662;2022-11-20T14:50:37;26.30;;;13.27;;
32746;SDS011;19118;50.860;13.662;2022-11-20T14:55:38;29.55;;;12.75;;
32746;SDS011;19118;50.860;13.662;2022-11-20T15:00:39;23.60;;;11.25;;
32746;SDS011;19118;50.860;13.662;2022-11-20T15:05:49;21.60;;;11.30;;
32746;SDS011;19118;50.860;13.662;2022-11-20T15:10:51;25.48;;;10.73;;
32746;SDS011;19118;50.860;13.662;2022-11-20T15:15:53;22.92;;;10.90;;
32746;SDS011;19118;50.860;13.662;2022-11-20T15:20:55;25.05;;;12.43;;
32746;SDS011;19118;50.860;13.662;2022-11-20T15:25:57;21.75;;;11.02;;
32746;SDS011;19118;50.860;13.662;2022-11-20T15:30:58;23.83;;;11.10;;
32746;SDS011;19118;50.860;13.662;2022-11-20T15:35:59;27.25;;;12.00;;
32746;SDS011;19118;50.860;13.662;2022-11-20T15:41:00;22.20;;;10.90;;
32746;SDS011;19118;50.860;13.662;2022-11-20T15:46:22;23.00;;;11.35;;
32746;SDS011;19118;50.860;13.662;2022-11-20T15:51:27;24.42;;;11.38;;
32746;SDS011;19118;50.860;13.662;2022-11-20T15:56:30;24.33;;;10.88;;
32746;SDS011;19118;50.860;13.662;2022-11-20T16:01:33;22.00;;;10.65;;
32746;SDS011;19118;50.860;13.662;2022-11-20T16:06:33;23.40;;;11.93;;
32746;SDS011;19118;50.860;13.662;2022-11-20T16:11:34;23.30;;;11.88;;
32746;SDS011;19118;50.860;13.662;2022-11-20T16:16:38;26.73;;;11.35;;
32746;SDS011;19118;50.860;13.662;2022-11-20T16:21:40;25.33;;;12.82;;
32746;SDS011;19118;50.860;13.662;2022-11-20T16:26:41;27.98;;;13.23;;
32746;SDS011;19118;50.860;13.662;2022-11-20T16:31:42;26.02;;;13.30;;
32746;SDS011;19118;50.860;13.662;2022-11-20T16:36:42;33.97;;;16.60;;
32746;SDS011;19118;50.860;13.662;2022-11-20T16:41:44;33.00;;;15.63;;
32746;SDS011;19118;50.860;13.662;2022-11-20T16:46:45;29.38;;;11.88;;
32746;SDS011;19118;50.860;13.662;2022-11-20T16:51:46;30.95;;;12.50;;
32746;SDS011;19118;50.860;13.662;2022-11-20T16:56:47;26.83;;;12.73;;
32746;SDS011;19118;50.860;13.662;2022-11-20T17:01:47;27.85;;;12.80;;
32746;SDS011;19118;50.860;13.662;2022-11-20T17:06:48;22.60;;;11.30;;
32746;SDS011;19118;50.860;13.662;2022-11-20T17:11:49;23.27;;;10.82;;
32746;SDS011;19118;50.860;13.662;2022-11-20T17:16:49;21.98;;;10.68;;
32746;SDS011;19118;50.860;13.662;2022-11-20T17:21:50;22.30;;;9.98;;
32746;SDS011;19118;50.860;13.662;2022-11-20T17:26:50;24.38;;;10.90;;
32746;SDS011;19118;50.860;13.662;2022-11-20T17:31:50;29.27;;;12.35;;
32746;SDS011;19118;50.860;13.662;2022-11-20T17:36:52;26.00;;;11.27;;
32746;SDS011;19118;50.860;13.662;2022-11-20T17:41:54;26.27;;;11.43;;
32746;SDS011;19118;50.860;13.662;2022-11-20T17:47:13;28.50;;;12.70;;
32746;SDS011;19118;50.860;13.662;2022-11-20T17:52:13;28.20;;;14.00;;
32746;SDS011;19118;50.860;13.662;2022-11-20T17:57:14;30.23;;;13.18;;
32746;SDS011;19118;50.860;13.662;2022-11-20T18:02:35;26.42;;;13.00;;
32746;SDS011;19118;50.860;13.662;2022-11-20T18:07:35;25.30;;;12.60;;
32746;SDS011;19118;50.860;13.662;2022-11-20T18:12:37;25.38;;;12.00;;
32746;SDS011;19118;50.860;13.662;2022-11-20T18:17:38;27.30;;;13.00;;
32746;SDS011;19118;50.860;13.662;2022-11-20T18:22:38;25.67;;;11.93;;
32746;SDS011;19118;50.860;13.662;2022-11-20T18:27:38;27.50;;;12.40;;
32746;SDS011;19118;50.860;13.662;2022-11-20T18:32:39;33.90;;;13.00;;
32746;SDS011;19118;50.860;13.662;2022-11-20T18:37:39;37.33;;;14.68;;
32746;SDS011;19118;50.860;13.662;2022-11-20T18:42:40;33.35;;;15.13;;
32746;SDS011;19118;50.860;13.662;2022-11-20T18:47:59;32.33;;;15.30;;
32746;SDS011;19118;50.860;13.662;2022-11-20T18:52:59;29.50;;;14.73;;
32746;SDS011;19118;50.860;13.662;2022-11-20T18:58:00;33.78;;;14.90;;
32746;SDS011;19118;50.860;13.662;2022-11-20T19:03:00;34.80;;;13.45;;
32746;SDS011;19118;50.860;13.662;2022-11-20T19:08:00;32.67;;;13.20;;
32746;SDS011;19118;50.860;13.662;2022-11-20T19:13:01;24.05;;;11.88;;
32746;SDS011;19118;50.860;13.662;2022-11-20T19:18:01;24.48;;;11.27;;
32746;SDS011;19118;50.860;13.662;2022-11-20T19:23:02;27.13;;;12.55;;
32746;SDS011;19118;50.860;13.662;2022-11-20T19:28:02;24.05;;;10.77;;
32746;SDS011;19118;50.860;13.662;2022-11-20T19:33:02;28.23;;;12.02;;
32746;SDS011;19118;50.860;13.662;2022-11-20T19:38:03;29.08;;;12.30;;
32746;SDS011;19118;50.860;13.662;2022-11-20T19:43:03;25.70;;;11.77;;
32746;SDS011;19118;50.860;13.662;2022-11-20T19:48:04;25.70;;;11.93;;
32746;SDS011;19118;50.860;13.662;2022-11-20T19:53:04;30.27;;;12.90;;
32746;SDS011;19118;50.860;13.662;2022-11-20T19:58:06;46.75;;;16.92;;
32746;SDS011;19118;50.860;13.662;2022-11-20T20:03:07;25.77;;;13.18;;
32746;SDS011;19118;50.860;13.662;2022-11-20T20:08:08;28.48;;;13.05;;
32746;SDS011;19118;50.860;13.662;2022-11-20T20:13:08;27.00;;;12.85;;
32746;SDS011;19118;50.860;13.662;2022-11-20T20:18:09;27.40;;;13.00;;
32746;SDS011;19118;50.860;13.662;2022-11-20T20:23:09;21.17;;;11.00;;
32746;SDS011;19118;50.860;13.662;2022-11-20T20:28:10;25.48;;;12.55;;
32746;SDS011;19118;50.860;13.662;2022-11-20T20:33:10;35.60;;;17.35;;
32746;SDS011;19118;50.860;13.662;2022-11-20T20:38:11;27.55;;;14.60;;
32746;SDS011;19118;50.860;13.662;2022-11-20T20:43:11;25.95;;;11.60;;
32746;SDS011;19118;50.860;13.662;2022-11-20T20:48:12;22.27;;;11.95;;
32746;SDS011;19118;50.860;13.662;2022-11-20T20:53:12;25.42;;;10.70;;
32746;SDS011;19118;50.860;13.662;2022-11-20T20:58:13;24.88;;;10.68;;
32746;SDS011;19118;50.860;13.662;2022-11-20T21:03:13;21.90;;;11.05;;
32746;SDS011;19118;50.860;13.662;2022-11-20T21:08:14;24.17;;;10.55;;
32746;SDS011;19118;50.860;13.662;2022-11-20T21:13:20;20.08;;;10.00;;
32746;SDS011;19118;50.860;13.662;2022-11-20T21:18:24;22.90;;;10.63;;
32746;SDS011;19118;50.860;13.662;2022-11-20T21:23:25;19.92;;;9.93;;
32746;SDS011;19118;50.860;13.662;2022-11-20T21:28:25;22.38;;;11.13;;
32746;SDS011;19118;50.860;13.662;2022-11-20T21:33:25;19.42;;;10.77;;
32746;SDS011;19118;50.860;13.662;2022-11-20T21:38:26;20.00;;;10.45;;
32746;SDS011;19118;50.860;13.662;2022-11-20T21:43:26;17.67;;;10.15;;
32746;SDS011;19118;50.860;13.662;2022-11-20T21:48:28;20.50;;;9.98;;
32746;SDS011;19118;50.860;13.662;2022-11-20T21:53:29;21.17;;;11.15;;
32746;SDS011;19118;50.860;13.662;2022-11-20T21:58:30;24.13;;;11.85;;
32746;SDS011;19118;50.860;13.662;2022-11-20T22:03:31;30.75;;;14.35;;
32746;SDS011;19118;50.860;13.662;2022-11-20T22:08:32;26.42;;;13.40;;
32746;SDS011;19118;50.860;13.662;2022-11-20T22:13:34;25.95;;;12.00;;
32746;SDS011;19118;50.860;13.662;2022-11-20T22:18:54;27.55;;;15.10;;
32746;SDS011;19118;50.860;13.662;2022-11-20T22:23:56;20.00;;;10.98;;
32746;SDS011;19118;50.860;13.662;2022-11-20T22:28:57;22.10;;;11.25;;
32746;SDS011;19118;50.860;13.662;2022-11-20T22:34:00;21.15;;;10.90;;
32746;SDS011;19118;50.860;13.662;2022-11-20T22:39:01;20.27;;;10.05;;
32746;SDS011;19118;50.860;13.662;2022-11-20T22:44:03;46.55;;;18.95;;
32746;SDS011;19118;50.860;13.662;2022-11-20T22:49:06;40.67;;;18.30;;
32746;SDS011;19118;50.860;13.662;2022-11-20T22:54:10;28.42;;;11.90;;
32746;SDS011;19118;50.860;13.662;2022-11-20T22:59:11;22.75;;;11.75;;
32746;SDS011;19118;50.860;13.662;2022-11-20T23:04:11;20.92;;;10.82;;
32746;SDS011;19118;50.860;13.662;2022-11-20T23:09:12;21.77;;;10.63;;
32746;SDS011;19118;50.860;13.662;2022-11-20T23:14:13;23.38;;;12.15;;
32746;SDS011;19118;50.860;13.662;2022-11-20T23:19:14;25.88;;;13.05;;
32746;SDS011;19118;50.860;13.662;2022-11-20T23:24:15;24.05;;;11.50;;
32746;SDS011;19118;50.860;13.662;2022-11-20T23:29:15;27.27;;;13.82;;
32746;SDS011;19118;50.860;13.662;2022-11-20T23:34:15;34.67;;;12.93;;
32746;SDS011;19118;50.860;13.662;2022-11-20T23:39:16;20.35;;;11.23;;
32746;SDS011;19118;50.860;13.662;2022-11-20T23:44:16;20.33;;;10.93;;
32746;SDS011;19118;50.860;13.662;2022-11-20T23:49:17;18.58;;;10.02;;
32746;SDS011;19118;50.860;13.662;2022-11-20T23:54:17;23.83;;;10.15;;
32746;SDS011;19118;50.860;13.662;2022-11-20T23:59:17;22.33;;;10.90;;
